sensor_id;sensor_type;location;lat;lon;timestamp;temperature;humidity
2062;DHT22;11070;51.336;12.340;2022-07-21T00:00:31;26.20;99.90
2062;DHT22;11070;51.336;12.340;2022-07-21T00:02:57;26.10;99.90
2062;DHT22;11070;51.336;12.340;2022-07-21T00:05:23;26.00;99.90
2062;DHT22;11070;51.336;12.340;2022-07-21T00:07:50;26.00;99.90
2062;DHT22;11070;51.336;12.340;2022-07-21T00:10:17;25.90;99.90
2062;DHT22;11070;51.336;12.340;2022-07-21T00:12:43;25.80;99.90
2062;DHT22;11070;51.336;12.340;2022-07-21T00:15:09;25.80;99.90
2062;DHT22;11070;51.336;12.340;2022-07-21T00:17:35;25.80;99.90
2062;DHT22;11070;51.336;12.340;2022-07-21T00:20:01;25.80;99.90
2062;DHT22;11070;51.336;12.340;2022-07-21T00:22:27;25.90;99.90
2062;DHT22;11070;51.336;12.340;2022-07-21T00:24:53;25.90;99.90
2062;DHT22;11070;51.336;12.340;2022-07-21T00:27:18;25.90;99.90
2062;DHT22;11070;51.336;12.340;2022-07-21T00:29:44;25.90;99.90
2062;DHT22;11070;51.336;12.340;2022-07-21T00:32:10;25.90;99.90
2062;DHT22;11070;51.336;12.340;2022-07-21T00:34:35;25.90;99.90
2062;DHT22;11070;51.336;12.340;2022-07-21T00:37:01;26.00;99.90
2062;DHT22;11070;51.336;12.340;2022-07-21T00:39:27;26.10;99.90
2062;DHT22;11070;51.336;12.340;2022-07-21T00:41:52;26.20;99.90
2062;DHT22;11070;51.336;12.340;2022-07-21T00:44:20;26.20;99.90
2062;DHT22;11070;51.336;12.340;2022-07-21T00:46:46;26.20;99.90
2062;DHT22;11070;51.336;12.340;2022-07-21T00:49:11;26.20;99.90
2062;DHT22;11070;51.336;12.340;2022-07-21T00:51:37;26.10;99.90
2062;DHT22;11070;51.336;12.340;2022-07-21T00:54:03;26.10;99.90
2062;DHT22;11070;51.336;12.340;2022-07-21T00:56:28;26.00;99.90
2062;DHT22;11070;51.336;12.340;2022-07-21T00:58:54;25.90;99.90
2062;DHT22;11070;51.336;12.340;2022-07-21T01:01:19;25.90;99.90
2062;DHT22;11070;51.336;12.340;2022-07-21T01:03:45;25.90;99.90
2062;DHT22;11070;51.336;12.340;2022-07-21T01:06:10;25.80;99.90
2062;DHT22;11070;51.336;12.340;2022-07-21T01:08:36;25.70;99.90
2062;DHT22;11070;51.336;12.340;2022-07-21T01:11:02;25.70;99.90
2062;DHT22;11070;51.336;12.340;2022-07-21T01:13:28;25.70;99.90
2062;DHT22;11070;51.336;12.340;2022-07-21T01:15:55;25.60;99.90
2062;DHT22;11070;51.336;12.340;2022-07-21T01:18:20;25.50;99.90
2062;DHT22;11070;51.336;12.340;2022-07-21T01:20:52;25.50;99.90
2062;DHT22;11070;51.336;12.340;2022-07-21T01:23:19;25.40;99.90
2062;DHT22;11070;51.336;12.340;2022-07-21T01:25:48;25.40;99.90
2062;DHT22;11070;51.336;12.340;2022-07-21T01:28:14;25.30;99.90
2062;DHT22;11070;51.336;12.340;2022-07-21T01:30:40;25.30;99.90
2062;DHT22;11070;51.336;12.340;2022-07-21T01:33:05;25.30;99.90
2062;DHT22;11070;51.336;12.340;2022-07-21T01:35:31;25.20;99.90
2062;DHT22;11070;51.336;12.340;2022-07-21T01:37:58;25.20;99.90
2062;DHT22;11070;51.336;12.340;2022-07-21T01:40:24;25.10;99.90
2062;DHT22;11070;51.336;12.340;2022-07-21T01:43:08;25.10;99.90
2062;DHT22;11070;51.336;12.340;2022-07-21T01:45:34;25.10;99.90
2062;DHT22;11070;51.336;12.340;2022-07-21T01:48:00;25.00;99.90
2062;DHT22;11070;51.336;12.340;2022-07-21T01:50:26;25.00;99.90
2062;DHT22;11070;51.336;12.340;2022-07-21T01:52:56;25.00;99.90
2062;DHT22;11070;51.336;12.340;2022-07-21T01:55:23;25.00;99.90
2062;DHT22;11070;51.336;12.340;2022-07-21T01:57:49;24.90;99.90
2062;DHT22;11070;51.336;12.340;2022-07-21T02:00:16;24.90;99.90
2062;DHT22;11070;51.336;12.340;2022-07-21T02:02:42;24.90;99.90
2062;DHT22;11070;51.336;12.340;2022-07-21T02:05:08;24.90;99.90
2062;DHT22;11070;51.336;12.340;2022-07-21T02:07:33;24.90;99.90
2062;DHT22;11070;51.336;12.340;2022-07-21T02:09:59;24.90;99.90
2062;DHT22;11070;51.336;12.340;2022-07-21T02:12:25;24.80;99.90
2062;DHT22;11070;51.336;12.340;2022-07-21T02:14:50;24.80;99.90
2062;DHT22;11070;51.336;12.340;2022-07-21T02:17:16;24.80;99.90
2062;DHT22;11070;51.336;12.340;2022-07-21T02:19:41;24.80;99.90
2062;DHT22;11070;51.336;12.340;2022-07-21T02:22:07;24.80;99.90
2062;DHT22;11070;51.336;12.340;2022-07-21T02:24:32;24.80;99.90
2062;DHT22;11070;51.336;12.340;2022-07-21T02:27:00;24.80;99.90
2062;DHT22;11070;51.336;12.340;2022-07-21T02:29:25;24.70;99.90
2062;DHT22;11070;51.336;12.340;2022-07-21T02:31:51;24.70;99.90
2062;DHT22;11070;51.336;12.340;2022-07-21T02:34:17;24.60;99.90
2062;DHT22;11070;51.336;12.340;2022-07-21T02:36:42;24.60;99.90
2062;DHT22;11070;51.336;12.340;2022-07-21T02:39:08;24.60;99.90
2062;DHT22;11070;51.336;12.340;2022-07-21T02:41:33;24.60;99.90
2062;DHT22;11070;51.336;12.340;2022-07-21T02:43:59;24.60;99.90
2062;DHT22;11070;51.336;12.340;2022-07-21T02:46:25;24.60;99.90
2062;DHT22;11070;51.336;12.340;2022-07-21T02:48:50;24.60;99.90
2062;DHT22;11070;51.336;12.340;2022-07-21T02:51:16;24.50;99.90
2062;DHT22;11070;51.336;12.340;2022-07-21T02:53:41;24.50;99.90
2062;DHT22;11070;51.336;12.340;2022-07-21T02:56:07;24.50;99.90
2062;DHT22;11070;51.336;12.340;2022-07-21T02:58:33;24.50;99.90
2062;DHT22;11070;51.336;12.340;2022-07-21T03:01:01;24.50;99.90
2062;DHT22;11070;51.336;12.340;2022-07-21T03:03:33;24.40;99.90
2062;DHT22;11070;51.336;12.340;2022-07-21T03:06:00;24.40;99.90
2062;DHT22;11070;51.336;12.340;2022-07-21T03:08:27;24.40;99.90
2062;DHT22;11070;51.336;12.340;2022-07-21T03:10:53;24.40;99.90
2062;DHT22;11070;51.336;12.340;2022-07-21T03:13:19;24.30;99.90
2062;DHT22;11070;51.336;12.340;2022-07-21T03:15:44;24.30;99.90
2062;DHT22;11070;51.336;12.340;2022-07-21T03:18:10;24.30;99.90
2062;DHT22;11070;51.336;12.340;2022-07-21T03:20:39;24.30;99.90
2062;DHT22;11070;51.336;12.340;2022-07-21T03:23:05;24.30;99.90
2062;DHT22;11070;51.336;12.340;2022-07-21T03:25:31;24.30;99.90
2062;DHT22;11070;51.336;12.340;2022-07-21T03:27:57;24.30;99.90
2062;DHT22;11070;51.336;12.340;2022-07-21T03:30:24;24.30;99.90
2062;DHT22;11070;51.336;12.340;2022-07-21T03:32:50;24.20;99.90
2062;DHT22;11070;51.336;12.340;2022-07-21T03:35:17;24.10;99.90
2062;DHT22;11070;51.336;12.340;2022-07-21T03:37:44;24.00;99.90
2062;DHT22;11070;51.336;12.340;2022-07-21T03:40:12;23.90;99.90
2062;DHT22;11070;51.336;12.340;2022-07-21T03:42:38;23.80;99.90
2062;DHT22;11070;51.336;12.340;2022-07-21T03:45:05;23.80;99.90
2062;DHT22;11070;51.336;12.340;2022-07-21T03:47:31;23.70;99.90
2062;DHT22;11070;51.336;12.340;2022-07-21T03:49:56;23.70;99.90
2062;DHT22;11070;51.336;12.340;2022-07-21T03:52:22;23.70;99.90
2062;DHT22;11070;51.336;12.340;2022-07-21T03:54:48;23.60;99.90
2062;DHT22;11070;51.336;12.340;2022-07-21T03:57:13;23.60;99.90
2062;DHT22;11070;51.336;12.340;2022-07-21T03:59:39;23.60;99.90
2062;DHT22;11070;51.336;12.340;2022-07-21T04:02:04;23.50;99.90
2062;DHT22;11070;51.336;12.340;2022-07-21T04:04:30;23.50;99.90
2062;DHT22;11070;51.336;12.340;2022-07-21T04:06:56;23.50;99.90
2062;DHT22;11070;51.336;12.340;2022-07-21T04:09:21;23.50;99.90
2062;DHT22;11070;51.336;12.340;2022-07-21T04:11:47;23.50;99.90
2062;DHT22;11070;51.336;12.340;2022-07-21T04:14:13;23.50;99.90
2062;DHT22;11070;51.336;12.340;2022-07-21T04:16:38;23.50;99.90
2062;DHT22;11070;51.336;12.340;2022-07-21T04:19:04;23.50;99.90
2062;DHT22;11070;51.336;12.340;2022-07-21T04:21:30;23.60;99.90
2062;DHT22;11070;51.336;12.340;2022-07-21T04:23:58;23.60;99.90
2062;DHT22;11070;51.336;12.340;2022-07-21T04:26:24;23.70;99.90
2062;DHT22;11070;51.336;12.340;2022-07-21T04:28:50;23.80;99.90
2062;DHT22;11070;51.336;12.340;2022-07-21T04:31:15;23.80;99.90
2062;DHT22;11070;51.336;12.340;2022-07-21T04:33:41;23.90;99.90
2062;DHT22;11070;51.336;12.340;2022-07-21T04:36:07;24.00;99.90
2062;DHT22;11070;51.336;12.340;2022-07-21T04:38:33;24.20;99.90
2062;DHT22;11070;51.336;12.340;2022-07-21T04:40:58;24.30;99.90
2062;DHT22;11070;51.336;12.340;2022-07-21T04:43:24;24.50;99.90
2062;DHT22;11070;51.336;12.340;2022-07-21T04:45:50;24.70;99.90
2062;DHT22;11070;51.336;12.340;2022-07-21T04:48:15;24.80;99.90
2062;DHT22;11070;51.336;12.340;2022-07-21T04:50:41;24.80;99.90
2062;DHT22;11070;51.336;12.340;2022-07-21T04:53:06;25.00;99.90
2062;DHT22;11070;51.336;12.340;2022-07-21T04:55:33;25.10;99.90
2062;DHT22;11070;51.336;12.340;2022-07-21T04:57:59;25.10;99.90
2062;DHT22;11070;51.336;12.340;2022-07-21T05:00:25;25.20;99.90
2062;DHT22;11070;51.336;12.340;2022-07-21T05:02:52;25.30;99.90
2062;DHT22;11070;51.336;12.340;2022-07-21T05:05:18;25.30;99.90
2062;DHT22;11070;51.336;12.340;2022-07-21T05:07:44;25.30;99.90
2062;DHT22;11070;51.336;12.340;2022-07-21T05:10:12;25.30;99.90
2062;DHT22;11070;51.336;12.340;2022-07-21T05:12:38;25.20;99.90
2062;DHT22;11070;51.336;12.340;2022-07-21T05:15:08;25.10;99.90
2062;DHT22;11070;51.336;12.340;2022-07-21T05:17:35;25.00;99.90
2062;DHT22;11070;51.336;12.340;2022-07-21T05:20:04;25.10;99.90
2062;DHT22;11070;51.336;12.340;2022-07-21T05:22:30;25.10;99.90
2062;DHT22;11070;51.336;12.340;2022-07-21T05:24:56;25.00;99.90
2062;DHT22;11070;51.336;12.340;2022-07-21T05:27:21;24.90;99.90
2062;DHT22;11070;51.336;12.340;2022-07-21T05:29:47;24.90;99.90
2062;DHT22;11070;51.336;12.340;2022-07-21T05:32:13;24.90;99.90
2062;DHT22;11070;51.336;12.340;2022-07-21T05:34:38;24.80;99.90
2062;DHT22;11070;51.336;12.340;2022-07-21T05:37:04;24.80;99.90
2062;DHT22;11070;51.336;12.340;2022-07-21T05:39:29;24.80;99.90
2062;DHT22;11070;51.336;12.340;2022-07-21T05:41:55;24.70;99.90
2062;DHT22;11070;51.336;12.340;2022-07-21T05:44:21;24.80;99.90
2062;DHT22;11070;51.336;12.340;2022-07-21T05:46:46;24.80;99.90
2062;DHT22;11070;51.336;12.340;2022-07-21T05:49:12;24.80;99.90
2062;DHT22;11070;51.336;12.340;2022-07-21T05:51:38;25.00;99.90
2062;DHT22;11070;51.336;12.340;2022-07-21T05:54:03;25.00;99.90
2062;DHT22;11070;51.336;12.340;2022-07-21T05:56:29;25.00;99.90
2062;DHT22;11070;51.336;12.340;2022-07-21T05:58:54;24.90;99.90
2062;DHT22;11070;51.336;12.340;2022-07-21T06:01:20;24.80;99.90
2062;DHT22;11070;51.336;12.340;2022-07-21T06:03:50;24.70;99.90
2062;DHT22;11070;51.336;12.340;2022-07-21T06:06:17;24.60;99.90
2062;DHT22;11070;51.336;12.340;2022-07-21T06:08:44;24.70;99.90
2062;DHT22;11070;51.336;12.340;2022-07-21T06:11:13;24.60;99.90
2062;DHT22;11070;51.336;12.340;2022-07-21T06:13:39;24.60;99.90
2062;DHT22;11070;51.336;12.340;2022-07-21T06:16:05;24.60;99.90
2062;DHT22;11070;51.336;12.340;2022-07-21T06:18:31;24.80;99.90
2062;DHT22;11070;51.336;12.340;2022-07-21T06:20:57;24.80;99.90
2062;DHT22;11070;51.336;12.340;2022-07-21T06:23:23;25.10;99.90
2062;DHT22;11070;51.336;12.340;2022-07-21T06:25:49;25.30;99.90
2062;DHT22;11070;51.336;12.340;2022-07-21T06:28:15;25.40;99.90
2062;DHT22;11070;51.336;12.340;2022-07-21T06:30:41;25.50;99.90
2062;DHT22;11070;51.336;12.340;2022-07-21T06:33:06;25.70;99.90
2062;DHT22;11070;51.336;12.340;2022-07-21T06:35:32;25.90;99.90
2062;DHT22;11070;51.336;12.340;2022-07-21T06:37:58;25.90;99.90
2062;DHT22;11070;51.336;12.340;2022-07-21T06:40:23;25.80;99.90
2062;DHT22;11070;51.336;12.340;2022-07-21T06:42:49;25.80;99.90
2062;DHT22;11070;51.336;12.340;2022-07-21T06:45:14;26.00;99.90
2062;DHT22;11070;51.336;12.340;2022-07-21T06:47:42;26.30;99.90
2062;DHT22;11070;51.336;12.340;2022-07-21T06:50:09;26.60;99.90
2062;DHT22;11070;51.336;12.340;2022-07-21T06:52:35;26.80;99.90
2062;DHT22;11070;51.336;12.340;2022-07-21T06:55:03;26.60;99.90
2062;DHT22;11070;51.336;12.340;2022-07-21T06:57:29;26.90;99.90
2062;DHT22;11070;51.336;12.340;2022-07-21T06:59:55;27.10;99.90
2062;DHT22;11070;51.336;12.340;2022-07-21T07:02:21;26.90;99.90
2062;DHT22;11070;51.336;12.340;2022-07-21T07:04:46;26.80;99.90
2062;DHT22;11070;51.336;12.340;2022-07-21T07:07:15;26.90;99.90
2062;DHT22;11070;51.336;12.340;2022-07-21T07:09:41;26.60;99.90
2062;DHT22;11070;51.336;12.340;2022-07-21T07:12:07;26.70;99.90
2062;DHT22;11070;51.336;12.340;2022-07-21T07:14:35;27.00;99.90
2062;DHT22;11070;51.336;12.340;2022-07-21T07:17:02;27.50;99.90
2062;DHT22;11070;51.336;12.340;2022-07-21T07:19:29;27.70;99.90
2062;DHT22;11070;51.336;12.340;2022-07-21T07:21:55;27.80;99.90
2062;DHT22;11070;51.336;12.340;2022-07-21T07:24:21;28.10;99.90
2062;DHT22;11070;51.336;12.340;2022-07-21T07:26:47;28.30;99.90
2062;DHT22;11070;51.336;12.340;2022-07-21T07:29:13;28.00;99.90
2062;DHT22;11070;51.336;12.340;2022-07-21T07:31:41;27.70;99.90
2062;DHT22;11070;51.336;12.340;2022-07-21T07:34:07;27.70;99.90
2062;DHT22;11070;51.336;12.340;2022-07-21T07:36:33;27.50;99.90
2062;DHT22;11070;51.336;12.340;2022-07-21T07:39:00;27.50;99.90
2062;DHT22;11070;51.336;12.340;2022-07-21T07:41:27;27.00;99.90
2062;DHT22;11070;51.336;12.340;2022-07-21T07:43:54;26.80;99.90
2062;DHT22;11070;51.336;12.340;2022-07-21T07:46:20;26.80;99.90
2062;DHT22;11070;51.336;12.340;2022-07-21T07:48:46;27.20;99.90
2062;DHT22;11070;51.336;12.340;2022-07-21T07:51:13;27.10;99.90
2062;DHT22;11070;51.336;12.340;2022-07-21T07:53:40;26.70;99.90
2062;DHT22;11070;51.336;12.340;2022-07-21T07:56:07;26.90;99.90
2062;DHT22;11070;51.336;12.340;2022-07-21T07:58:33;27.20;99.90
2062;DHT22;11070;51.336;12.340;2022-07-21T08:01:00;27.50;99.90
2062;DHT22;11070;51.336;12.340;2022-07-21T08:03:26;27.80;99.90
2062;DHT22;11070;51.336;12.340;2022-07-21T08:05:54;28.20;99.90
2062;DHT22;11070;51.336;12.340;2022-07-21T08:08:20;28.40;99.90
2062;DHT22;11070;51.336;12.340;2022-07-21T08:10:46;27.90;99.90
2062;DHT22;11070;51.336;12.340;2022-07-21T08:13:14;27.50;99.90
2062;DHT22;11070;51.336;12.340;2022-07-21T08:15:40;27.10;99.90
2062;DHT22;11070;51.336;12.340;2022-07-21T08:18:07;26.90;99.90
2062;DHT22;11070;51.336;12.340;2022-07-21T08:20:33;26.40;99.90
2062;DHT22;11070;51.336;12.340;2022-07-21T08:22:59;26.00;99.90
2062;DHT22;11070;51.336;12.340;2022-07-21T08:25:24;25.80;99.90
2062;DHT22;11070;51.336;12.340;2022-07-21T08:27:50;25.80;99.90
2062;DHT22;11070;51.336;12.340;2022-07-21T08:30:16;26.00;99.90
2062;DHT22;11070;51.336;12.340;2022-07-21T08:32:41;25.70;99.90
2062;DHT22;11070;51.336;12.340;2022-07-21T08:35:07;25.50;99.90
2062;DHT22;11070;51.336;12.340;2022-07-21T08:37:37;25.40;99.90
2062;DHT22;11070;51.336;12.340;2022-07-21T08:40:04;25.30;99.90
2062;DHT22;11070;51.336;12.340;2022-07-21T08:42:30;24.90;99.90
2062;DHT22;11070;51.336;12.340;2022-07-21T08:44:56;24.70;99.90
2062;DHT22;11070;51.336;12.340;2022-07-21T08:47:22;24.60;1.00
2062;DHT22;11070;51.336;12.340;2022-07-21T08:49:48;24.70;99.90
2062;DHT22;11070;51.336;12.340;2022-07-21T08:52:15;24.70;99.90
2062;DHT22;11070;51.336;12.340;2022-07-21T08:54:40;24.70;99.90
2062;DHT22;11070;51.336;12.340;2022-07-21T08:57:06;24.80;99.90
2062;DHT22;11070;51.336;12.340;2022-07-21T08:59:32;24.70;99.90
2062;DHT22;11070;51.336;12.340;2022-07-21T09:01:58;24.60;1.00
2062;DHT22;11070;51.336;12.340;2022-07-21T09:04:32;24.50;1.00
2062;DHT22;11070;51.336;12.340;2022-07-21T09:07:00;24.40;1.00
2062;DHT22;11070;51.336;12.340;2022-07-21T09:09:27;24.20;1.00
2062;DHT22;11070;51.336;12.340;2022-07-21T09:11:54;24.10;1.00
2062;DHT22;11070;51.336;12.340;2022-07-21T09:14:23;23.90;1.00
2062;DHT22;11070;51.336;12.340;2022-07-21T09:16:52;23.70;27.20
2062;DHT22;11070;51.336;12.340;2022-07-21T09:19:32;23.60;99.90
2062;DHT22;11070;51.336;12.340;2022-07-21T09:22:03;23.60;99.90
2062;DHT22;11070;51.336;12.340;2022-07-21T09:24:31;23.50;99.90
2062;DHT22;11070;51.336;12.340;2022-07-21T09:27:22;23.50;99.90
2062;DHT22;11070;51.336;12.340;2022-07-21T09:29:53;23.40;1.00
2062;DHT22;11070;51.336;12.340;2022-07-21T09:34:48;22.90;1.00
2062;DHT22;11070;51.336;12.340;2022-07-21T09:37:15;22.70;1.00
2062;DHT22;11070;51.336;12.340;2022-07-21T09:39:42;22.50;99.90
2062;DHT22;11070;51.336;12.340;2022-07-21T09:42:25;22.40;1.00
2062;DHT22;11070;51.336;12.340;2022-07-21T09:44:57;22.40;1.00
2062;DHT22;11070;51.336;12.340;2022-07-21T09:47:24;22.40;1.00
2062;DHT22;11070;51.336;12.340;2022-07-21T09:49:51;22.20;1.00
2062;DHT22;11070;51.336;12.340;2022-07-21T09:52:25;22.30;1.00
2062;DHT22;11070;51.336;12.340;2022-07-21T09:54:53;22.20;1.00
2062;DHT22;11070;51.336;12.340;2022-07-21T09:57:20;22.30;1.00
2062;DHT22;11070;51.336;12.340;2022-07-21T09:59:47;22.30;1.00
2062;DHT22;11070;51.336;12.340;2022-07-21T10:05:08;22.50;1.00
2062;DHT22;11070;51.336;12.340;2022-07-21T10:07:37;22.70;1.00
2062;DHT22;11070;51.336;12.340;2022-07-21T10:10:05;22.80;1.00
2062;DHT22;11070;51.336;12.340;2022-07-21T10:12:32;23.00;1.00
2062;DHT22;11070;51.336;12.340;2022-07-21T10:14:57;23.10;99.90
2062;DHT22;11070;51.336;12.340;2022-07-21T10:17:24;23.20;99.90
2062;DHT22;11070;51.336;12.340;2022-07-21T10:25:00;23.50;99.90
2062;DHT22;11070;51.336;12.340;2022-07-21T10:27:26;23.90;99.90
2062;DHT22;11070;51.336;12.340;2022-07-21T10:34:54;24.50;99.90
2062;DHT22;11070;51.336;12.340;2022-07-21T10:40:06;24.80;99.90
2062;DHT22;11070;51.336;12.340;2022-07-21T10:45:35;25.80;1.00
2062;DHT22;11070;51.336;12.340;2022-07-21T10:48:04;26.40;14.40
2062;DHT22;11070;51.336;12.340;2022-07-21T10:50:39;26.50;6.50
2062;DHT22;11070;51.336;12.340;2022-07-21T10:53:13;27.00;1.00
2062;DHT22;11070;51.336;12.340;2022-07-21T10:55:49;27.00;1.00
2062;DHT22;11070;51.336;12.340;2022-07-21T11:03:43;26.80;1.00
2062;DHT22;11070;51.336;12.340;2022-07-21T11:08:40;27.40;1.00
2062;DHT22;11070;51.336;12.340;2022-07-21T11:14:02;27.40;99.90
2062;DHT22;11070;51.336;12.340;2022-07-21T11:21:57;27.20;99.90
2062;DHT22;11070;51.336;12.340;2022-07-21T11:24:25;27.30;99.90
2062;DHT22;11070;51.336;12.340;2022-07-21T11:27:07;27.60;99.90
2062;DHT22;11070;51.336;12.340;2022-07-21T11:29:34;28.10;99.90
2062;DHT22;11070;51.336;12.340;2022-07-21T11:32:00;28.70;99.90
2062;DHT22;11070;51.336;12.340;2022-07-21T11:34:51;29.20;99.90
2062;DHT22;11070;51.336;12.340;2022-07-21T11:40:10;29.80;99.90
2062;DHT22;11070;51.336;12.340;2022-07-21T11:42:38;29.30;99.90
2062;DHT22;11070;51.336;12.340;2022-07-21T11:45:04;29.20;99.90
2062;DHT22;11070;51.336;12.340;2022-07-21T11:47:31;28.70;99.90
2062;DHT22;11070;51.336;12.340;2022-07-21T11:49:59;28.30;99.90
2062;DHT22;11070;51.336;12.340;2022-07-21T11:52:27;28.30;99.90
2062;DHT22;11070;51.336;12.340;2022-07-21T11:54:54;28.40;99.90
2062;DHT22;11070;51.336;12.340;2022-07-21T11:57:22;28.10;99.90
2062;DHT22;11070;51.336;12.340;2022-07-21T11:59:49;27.80;99.90
2062;DHT22;11070;51.336;12.340;2022-07-21T12:02:18;28.00;99.90
2062;DHT22;11070;51.336;12.340;2022-07-21T12:04:58;28.10;99.90
2062;DHT22;11070;51.336;12.340;2022-07-21T12:07:37;28.20;99.90
2062;DHT22;11070;51.336;12.340;2022-07-21T12:10:09;28.20;99.90
2062;DHT22;11070;51.336;12.340;2022-07-21T12:15:20;28.50;99.90
2062;DHT22;11070;51.336;12.340;2022-07-21T12:17:49;28.70;99.90
2062;DHT22;11070;51.336;12.340;2022-07-21T12:20:26;28.90;99.90
2062;DHT22;11070;51.336;12.340;2022-07-21T12:22:52;28.70;99.90
2062;DHT22;11070;51.336;12.340;2022-07-21T12:25:30;29.20;99.90
2062;DHT22;11070;51.336;12.340;2022-07-21T12:27:56;29.40;99.90
2062;DHT22;11070;51.336;12.340;2022-07-21T12:30:44;29.70;99.90
2062;DHT22;11070;51.336;12.340;2022-07-21T12:35:39;30.10;99.90
2062;DHT22;11070;51.336;12.340;2022-07-21T12:40:38;30.30;99.90
2062;DHT22;11070;51.336;12.340;2022-07-21T12:48:36;30.00;99.90
2062;DHT22;11070;51.336;12.340;2022-07-21T12:51:14;30.50;99.90
2062;DHT22;11070;51.336;12.340;2022-07-21T12:53:51;30.60;99.90
2062;DHT22;11070;51.336;12.340;2022-07-21T12:56:22;31.10;99.90
2062;DHT22;11070;51.336;12.340;2022-07-21T12:58:49;31.20;99.90
2062;DHT22;11070;51.336;12.340;2022-07-21T13:01:17;31.30;99.90
2062;DHT22;11070;51.336;12.340;2022-07-21T13:03:43;31.00;99.90
2062;DHT22;11070;51.336;12.340;2022-07-21T13:06:09;30.80;99.90
2062;DHT22;11070;51.336;12.340;2022-07-21T13:08:36;30.40;99.90
2062;DHT22;11070;51.336;12.340;2022-07-21T13:11:02;30.20;99.90
2062;DHT22;11070;51.336;12.340;2022-07-21T13:13:27;30.10;99.90
2062;DHT22;11070;51.336;12.340;2022-07-21T13:15:54;29.80;99.90
2062;DHT22;11070;51.336;12.340;2022-07-21T13:18:20;29.60;99.90
2062;DHT22;11070;51.336;12.340;2022-07-21T13:20:47;29.50;99.90
2062;DHT22;11070;51.336;12.340;2022-07-21T13:23:13;29.40;99.90
2062;DHT22;11070;51.336;12.340;2022-07-21T13:25:38;29.30;99.90
2062;DHT22;11070;51.336;12.340;2022-07-21T13:28:04;29.00;99.90
2062;DHT22;11070;51.336;12.340;2022-07-21T13:30:30;28.80;99.90
2062;DHT22;11070;51.336;12.340;2022-07-21T13:32:56;28.70;99.90
2062;DHT22;11070;51.336;12.340;2022-07-21T13:35:21;28.60;99.90
2062;DHT22;11070;51.336;12.340;2022-07-21T13:37:47;28.60;99.90
2062;DHT22;11070;51.336;12.340;2022-07-21T13:40:13;28.50;99.90
2062;DHT22;11070;51.336;12.340;2022-07-21T13:42:38;28.50;99.90
2062;DHT22;11070;51.336;12.340;2022-07-21T13:45:05;28.50;99.90
2062;DHT22;11070;51.336;12.340;2022-07-21T13:47:33;28.40;99.90
2062;DHT22;11070;51.336;12.340;2022-07-21T13:49:58;28.50;99.90
2062;DHT22;11070;51.336;12.340;2022-07-21T13:52:24;28.70;99.90
2062;DHT22;11070;51.336;12.340;2022-07-21T13:54:49;28.80;99.90
2062;DHT22;11070;51.336;12.340;2022-07-21T13:57:15;28.90;99.90
2062;DHT22;11070;51.336;12.340;2022-07-21T13:59:41;28.80;99.90
2062;DHT22;11070;51.336;12.340;2022-07-21T14:02:07;29.10;99.90
2062;DHT22;11070;51.336;12.340;2022-07-21T14:04:33;29.20;99.90
2062;DHT22;11070;51.336;12.340;2022-07-21T14:06:59;29.60;99.90
2062;DHT22;11070;51.336;12.340;2022-07-21T14:09:24;30.10;99.90
2062;DHT22;11070;51.336;12.340;2022-07-21T14:11:50;30.20;99.90
2062;DHT22;11070;51.336;12.340;2022-07-21T14:14:16;30.20;99.90
2062;DHT22;11070;51.336;12.340;2022-07-21T14:16:49;30.00;99.90
2062;DHT22;11070;51.336;12.340;2022-07-21T14:19:15;30.20;99.90
2062;DHT22;11070;51.336;12.340;2022-07-21T14:21:42;30.10;99.90
2062;DHT22;11070;51.336;12.340;2022-07-21T14:24:07;29.80;99.90
2062;DHT22;11070;51.336;12.340;2022-07-21T14:27:02;29.60;99.90
2062;DHT22;11070;51.336;12.340;2022-07-21T14:29:28;29.50;99.90
2062;DHT22;11070;51.336;12.340;2022-07-21T14:31:53;29.50;99.90
2062;DHT22;11070;51.336;12.340;2022-07-21T14:34:19;29.80;99.90
2062;DHT22;11070;51.336;12.340;2022-07-21T14:36:45;30.20;99.90
2062;DHT22;11070;51.336;12.340;2022-07-21T14:39:12;30.50;99.90
2062;DHT22;11070;51.336;12.340;2022-07-21T14:41:38;30.30;99.90
2062;DHT22;11070;51.336;12.340;2022-07-21T14:44:04;30.20;99.90
2062;DHT22;11070;51.336;12.340;2022-07-21T14:46:30;30.30;99.90
2062;DHT22;11070;51.336;12.340;2022-07-21T14:48:56;30.20;99.90
2062;DHT22;11070;51.336;12.340;2022-07-21T14:51:22;30.00;99.90
2062;DHT22;11070;51.336;12.340;2022-07-21T14:53:47;29.70;99.90
2062;DHT22;11070;51.336;12.340;2022-07-21T14:56:13;29.80;99.90
2062;DHT22;11070;51.336;12.340;2022-07-21T14:58:39;30.20;99.90
2062;DHT22;11070;51.336;12.340;2022-07-21T15:01:05;30.60;99.90
2062;DHT22;11070;51.336;12.340;2022-07-21T15:03:30;31.20;99.90
2062;DHT22;11070;51.336;12.340;2022-07-21T15:05:56;31.60;99.90
2062;DHT22;11070;51.336;12.340;2022-07-21T15:08:21;31.80;99.90
2062;DHT22;11070;51.336;12.340;2022-07-21T15:10:47;32.10;99.90
2062;DHT22;11070;51.336;12.340;2022-07-21T15:13:15;32.20;99.90
2062;DHT22;11070;51.336;12.340;2022-07-21T15:15:41;32.10;99.90
2062;DHT22;11070;51.336;12.340;2022-07-21T15:18:09;32.20;99.90
2062;DHT22;11070;51.336;12.340;2022-07-21T15:20:35;32.50;99.90
2062;DHT22;11070;51.336;12.340;2022-07-21T15:23:00;32.30;99.90
2062;DHT22;11070;51.336;12.340;2022-07-21T15:25:26;31.90;99.90
2062;DHT22;11070;51.336;12.340;2022-07-21T15:27:52;31.30;99.90
2062;DHT22;11070;51.336;12.340;2022-07-21T15:30:17;31.00;99.90
2062;DHT22;11070;51.336;12.340;2022-07-21T15:32:43;30.90;99.90
2062;DHT22;11070;51.336;12.340;2022-07-21T15:35:10;30.70;99.90
2062;DHT22;11070;51.336;12.340;2022-07-21T15:37:37;30.80;99.90
2062;DHT22;11070;51.336;12.340;2022-07-21T15:40:04;31.20;99.90
2062;DHT22;11070;51.336;12.340;2022-07-21T15:42:30;31.00;99.90
2062;DHT22;11070;51.336;12.340;2022-07-21T15:44:59;30.70;99.90
2062;DHT22;11070;51.336;12.340;2022-07-21T15:47:25;30.60;99.90
2062;DHT22;11070;51.336;12.340;2022-07-21T15:49:51;30.40;99.90
2062;DHT22;11070;51.336;12.340;2022-07-21T15:52:17;30.30;99.90
2062;DHT22;11070;51.336;12.340;2022-07-21T15:54:43;30.10;99.90
2062;DHT22;11070;51.336;12.340;2022-07-21T15:57:09;30.00;99.90
2062;DHT22;11070;51.336;12.340;2022-07-21T15:59:37;30.00;99.90
2062;DHT22;11070;51.336;12.340;2022-07-21T16:02:12;30.30;99.90
2062;DHT22;11070;51.336;12.340;2022-07-21T16:04:39;30.20;99.90
2062;DHT22;11070;51.336;12.340;2022-07-21T16:07:06;30.30;99.90
2062;DHT22;11070;51.336;12.340;2022-07-21T16:09:33;30.40;99.90
2062;DHT22;11070;51.336;12.340;2022-07-21T16:11:58;30.40;99.90
2062;DHT22;11070;51.336;12.340;2022-07-21T16:14:25;30.50;99.90
2062;DHT22;11070;51.336;12.340;2022-07-21T16:16:51;30.50;99.90
2062;DHT22;11070;51.336;12.340;2022-07-21T16:19:21;30.40;99.90
2062;DHT22;11070;51.336;12.340;2022-07-21T16:21:48;30.50;99.90
2062;DHT22;11070;51.336;12.340;2022-07-21T16:24:14;30.60;99.90